createdAt,value
2019-03-08T00:00:00.448Z,985.27
2019-03-08T00:01:00.438Z,985.39
2019-03-08T00:02:00.443Z,985.40
2019-03-08T00:03:00.415Z,985.58
2019-03-08T00:04:00.407Z,985.48
2019-03-08T00:05:00.406Z,985.58
2019-03-08T00:06:00.386Z,985.66
2019-03-08T00:07:00.372Z,985.58
2019-03-08T00:08:00.379Z,985.55
2019-03-08T00:09:00.346Z,985.66
2019-03-08T00:10:00.363Z,985.66
2019-03-08T00:11:00.347Z,985.62
2019-03-08T00:12:00.320Z,985.69
2019-03-08T00:13:00.305Z,985.87
2019-03-08T00:14:00.303Z,985.90
2019-03-08T00:15:00.359Z,985.55
2019-03-08T00:16:00.271Z,985.75
2019-03-08T00:17:00.272Z,985.62
2019-03-08T00:18:00.249Z,985.55
2019-03-08T00:19:00.249Z,985.70
2019-03-08T00:20:00.314Z,985.77
2019-03-08T00:21:00.218Z,985.72
2019-03-08T00:22:00.211Z,985.74
2019-03-08T00:23:00.206Z,985.69
2019-03-08T00:24:00.199Z,985.68
2019-03-08T00:25:00.308Z,985.80
2019-03-08T00:26:00.162Z,985.79
2019-03-08T00:27:00.147Z,986.05
2019-03-08T00:28:00.151Z,985.78
2019-03-08T00:29:00.127Z,985.82
2019-03-08T00:30:00.127Z,985.78
2019-03-08T00:31:00.115Z,985.64
2019-03-08T00:32:00.091Z,985.63
2019-03-08T00:33:00.079Z,985.76
2019-03-08T00:34:00.073Z,985.71
2019-03-08T00:35:00.059Z,985.73
2019-03-08T00:36:00.084Z,985.74
2019-03-08T00:37:00.040Z,985.73
2019-03-08T00:38:00.051Z,985.78
2019-03-08T00:39:00.020Z,985.86
2019-03-08T00:40:00.003Z,985.83
2019-03-08T00:40:59.990Z,985.76
2019-03-08T00:42:00.010Z,986.00
2019-03-08T00:42:59.972Z,985.86
2019-03-08T00:43:59.959Z,985.84
2019-03-08T00:44:59.947Z,985.73
2019-03-08T00:45:59.935Z,985.69
2019-03-08T00:46:59.927Z,985.95
2019-03-08T00:47:59.951Z,985.88
2019-03-08T00:48:59.903Z,985.83
2019-03-08T00:49:59.895Z,985.85
2019-03-08T00:50:59.878Z,985.78
2019-03-08T00:51:59.866Z,985.75
2019-03-08T00:52:59.883Z,985.82
2019-03-08T00:53:59.867Z,985.74
2019-03-08T00:54:59.835Z,985.79
2019-03-08T00:55:59.823Z,986.02
2019-03-08T00:56:59.815Z,986.00
2019-03-08T00:57:59.805Z,985.79
2019-03-08T00:58:59.811Z,986.01
2019-03-08T00:59:59.790Z,986.16
2019-03-08T01:00:59.771Z,985.97
2019-03-08T01:01:59.759Z,985.76
2019-03-08T01:02:59.747Z,985.99
2019-03-08T01:03:59.734Z,985.99
2019-03-08T01:04:59.735Z,986.04
2019-03-08T01:05:59.723Z,986.12
2019-03-08T01:06:59.707Z,986.07
2019-03-08T01:07:59.723Z,985.96
2019-03-08T01:08:59.681Z,986.07
2019-03-08T01:09:59.668Z,985.97
2019-03-08T01:10:59.659Z,985.83
2019-03-08T01:11:59.678Z,986.09
2019-03-08T01:12:59.634Z,986.04
2019-03-08T01:13:59.639Z,986.03
2019-03-08T01:14:59.614Z,986.04
2019-03-08T01:15:59.606Z,986.37
2019-03-08T01:16:59.591Z,986.04
2019-03-08T01:17:59.611Z,986.22
2019-03-08T01:18:59.570Z,986.10
2019-03-08T01:19:59.554Z,986.19
2019-03-08T01:20:59.543Z,986.13
2019-03-08T01:21:59.534Z,985.97
2019-03-08T01:22:59.531Z,986.19
2019-03-08T01:23:59.531Z,986.16
2019-03-08T01:24:59.515Z,986.30
2019-03-08T01:25:59.491Z,986.47
2019-03-08T01:26:59.490Z,986.35
2019-03-08T01:27:59.491Z,986.35
2019-03-08T01:28:59.455Z,986.45
2019-03-08T01:29:59.454Z,986.46
2019-03-08T01:30:59.442Z,986.67
2019-03-08T01:31:59.422Z,986.50
2019-03-08T01:32:59.411Z,986.64
2019-03-08T01:33:59.403Z,986.45
2019-03-08T01:34:59.386Z,986.58
2019-03-08T01:35:59.407Z,986.65
2019-03-08T01:36:59.367Z,986.55
2019-03-08T01:37:59.353Z,986.75
2019-03-08T01:38:59.347Z,986.62
2019-03-08T01:39:59.331Z,986.82
2019-03-08T01:40:59.322Z,986.80
2019-03-08T01:41:59.334Z,986.79
2019-03-08T01:42:59.318Z,986.67
2019-03-08T01:43:59.286Z,986.81
2019-03-08T01:44:59.283Z,986.81
2019-03-08T01:45:59.266Z,986.75
2019-03-08T01:46:59.262Z,986.81
2019-03-08T01:47:59.259Z,986.89
2019-03-08T01:48:59.267Z,986.70
2019-03-08T01:49:59.226Z,986.80
2019-03-08T01:50:59.210Z,986.87
2019-03-08T01:51:59.199Z,986.90
2019-03-08T01:52:59.189Z,986.76
2019-03-08T01:53:59.228Z,986.86
2019-03-08T01:54:59.167Z,986.76
2019-03-08T01:55:59.155Z,986.88
2019-03-08T01:56:59.142Z,986.80
2019-03-08T01:57:59.135Z,986.86
2019-03-08T01:58:59.127Z,986.83
2019-03-08T01:59:59.143Z,986.96
2019-03-08T02:00:59.099Z,987.03
2019-03-08T02:01:59.087Z,987.00
2019-03-08T02:02:59.078Z,986.80
2019-03-08T02:03:59.075Z,987.06
2019-03-08T02:04:59.057Z,986.86
2019-03-08T02:05:59.079Z,986.88
2019-03-08T02:06:59.035Z,986.93
2019-03-08T02:07:59.023Z,986.90
2019-03-08T02:08:59.011Z,987.00
2019-03-08T02:09:58.998Z,986.93
2019-03-08T02:10:58.992Z,986.91
2019-03-08T02:11:59.005Z,986.85
2019-03-08T02:12:58.967Z,986.85
2019-03-08T02:13:58.954Z,986.89
2019-03-08T02:14:58.946Z,986.99
2019-03-08T02:15:58.935Z,986.96
2019-03-08T02:16:58.923Z,987.06
2019-03-08T02:17:58.939Z,987.11
2019-03-08T02:18:58.900Z,986.99
2019-03-08T02:19:58.890Z,987.09
2019-03-08T02:21:06.408Z,987.08
2019-03-08T02:21:59.867Z,987.16
2019-03-08T02:22:58.870Z,987.19
2019-03-08T02:23:58.859Z,987.14
2019-03-08T02:24:58.835Z,987.05
2019-03-08T02:25:58.826Z,987.31
2019-03-08T02:26:58.810Z,987.20
2019-03-08T02:27:58.811Z,987.30
2019-03-08T02:28:58.805Z,987.24
2019-03-08T02:29:58.783Z,987.32
2019-03-08T02:30:58.767Z,987.45
2019-03-08T02:31:58.758Z,987.40
2019-03-08T02:32:58.749Z,987.40
2019-03-08T02:33:58.746Z,987.46
2019-03-08T02:34:58.726Z,987.40
2019-03-08T02:35:58.742Z,987.51
2019-03-08T02:36:58.702Z,987.43
2019-03-08T02:37:58.691Z,987.42
2019-03-08T02:38:58.679Z,987.45
2019-03-08T02:39:58.678Z,987.60
2019-03-08T02:40:58.660Z,987.47
2019-03-08T02:41:58.686Z,987.48
2019-03-08T02:42:58.634Z,987.59
2019-03-08T02:43:58.622Z,987.67
2019-03-08T02:44:58.610Z,987.70
2019-03-08T02:45:58.602Z,987.71
2019-03-08T02:46:58.590Z,988.05
2019-03-08T02:47:58.623Z,987.94
2019-03-08T02:48:58.570Z,987.75
2019-03-08T02:49:58.559Z,987.75
2019-03-08T02:50:58.546Z,987.76
2019-03-08T02:51:58.535Z,987.76
2019-03-08T02:52:58.530Z,987.84
2019-03-08T02:53:58.528Z,987.70
2019-03-08T02:54:58.502Z,987.75
2019-03-08T02:55:58.490Z,987.84
2019-03-08T02:56:58.483Z,987.80
2019-03-08T02:57:58.470Z,987.74
2019-03-08T02:58:58.495Z,987.76
2019-03-08T02:59:58.454Z,987.77
2019-03-08T03:00:58.435Z,987.75
2019-03-08T03:01:58.422Z,987.73
2019-03-08T03:02:58.418Z,987.78
2019-03-08T03:03:58.405Z,987.92
2019-03-08T03:04:58.422Z,987.88
2019-03-08T03:05:58.383Z,987.79
2019-03-08T03:06:58.367Z,987.80
2019-03-08T03:07:58.358Z,987.82
2019-03-08T03:08:58.347Z,987.82
2019-03-08T03:09:58.350Z,987.94
2019-03-08T03:10:58.342Z,987.83
2019-03-08T03:11:58.326Z,987.88
2019-03-08T03:12:58.303Z,987.97
2019-03-08T03:13:58.294Z,987.93
2019-03-08T03:14:58.278Z,987.98
2019-03-08T03:15:58.270Z,987.96
2019-03-08T03:16:58.289Z,988.00
2019-03-08T03:17:58.279Z,988.04
2019-03-08T03:18:58.235Z,987.98
2019-03-08T03:19:58.226Z,988.10
2019-03-08T03:20:58.215Z,988.00
2019-03-08T03:21:58.202Z,988.11
2019-03-08T03:22:58.202Z,988.12
2019-03-08T03:23:58.191Z,988.20
2019-03-08T03:24:58.170Z,988.11
2019-03-08T03:25:58.162Z,988.27
2019-03-08T03:26:58.158Z,988.15
2019-03-08T03:27:58.134Z,988.18
2019-03-08T03:28:58.126Z,988.17
2019-03-08T03:29:58.138Z,988.29
2019-03-08T03:30:58.147Z,988.24
2019-03-08T03:31:58.091Z,988.23
2019-03-08T03:32:58.085Z,988.34
2019-03-08T03:33:58.074Z,988.26
2019-03-08T03:34:58.058Z,988.41
2019-03-08T03:35:58.050Z,988.37
2019-03-08T03:36:58.078Z,988.43
2019-03-08T03:37:58.026Z,988.39
2019-03-08T03:38:58.014Z,988.40
2019-03-08T03:39:58.006Z,988.32
2019-03-08T03:40:57.991Z,988.45
2019-03-08T03:41:57.978Z,988.36
2019-03-08T03:42:57.994Z,988.55
2019-03-08T03:43:57.963Z,988.36
2019-03-08T03:44:57.946Z,988.36
2019-03-08T03:45:57.935Z,988.33
2019-03-08T03:46:57.926Z,988.66
2019-03-08T03:47:57.926Z,988.49
2019-03-08T03:48:57.934Z,988.55
2019-03-08T03:49:57.906Z,988.43
2019-03-08T03:50:57.882Z,988.44
2019-03-08T03:51:57.889Z,988.25
2019-03-08T03:52:57.858Z,988.51
2019-03-08T03:53:57.846Z,988.52
2019-03-08T03:54:57.875Z,988.56
2019-03-08T03:55:57.826Z,988.55
2019-03-08T03:56:57.814Z,988.61
2019-03-08T03:57:57.802Z,988.58
2019-03-08T03:58:57.802Z,988.79
2019-03-08T03:59:57.784Z,988.74
2019-03-08T04:00:57.790Z,988.77
2019-03-08T04:01:57.758Z,988.72
2019-03-08T04:02:57.748Z,988.78
2019-03-08T04:03:57.742Z,988.75
2019-03-08T04:04:57.750Z,989.03
2019-03-08T04:05:57.715Z,988.84
2019-03-08T04:06:57.724Z,988.95
2019-03-08T04:07:57.690Z,989.13
2019-03-08T04:08:57.686Z,989.04
2019-03-08T04:09:57.671Z,989.09
2019-03-08T04:10:57.678Z,989.06
2019-03-08T04:11:57.646Z,989.11
2019-03-08T04:12:57.653Z,989.37
2019-03-08T04:13:57.642Z,989.23
2019-03-08T04:14:57.614Z,989.14
2019-03-08T04:15:57.606Z,989.28
2019-03-08T04:16:57.610Z,989.22
2019-03-08T04:17:57.610Z,989.27
2019-03-08T04:18:57.570Z,989.26
2019-03-08T04:19:57.582Z,989.30
2019-03-08T04:20:57.546Z,989.23
2019-03-08T04:21:57.547Z,989.28
2019-03-08T04:22:57.538Z,989.34
2019-03-08T04:23:57.514Z,989.28
2019-03-08T04:24:57.507Z,989.44
2019-03-08T04:25:57.495Z,989.39
2019-03-08T04:26:57.498Z,989.42
2019-03-08T04:27:57.494Z,989.21
2019-03-08T04:28:57.458Z,989.43
2019-03-08T04:29:57.447Z,989.48
2019-03-08T04:30:57.438Z,989.52
2019-03-08T04:31:57.426Z,989.67
2019-03-08T04:32:57.425Z,989.55
2019-03-08T04:33:57.414Z,989.55
2019-03-08T04:34:57.405Z,989.63
2019-03-08T04:35:57.454Z,989.57
2019-03-08T04:36:57.389Z,989.67
2019-03-08T04:37:57.384Z,989.58
2019-03-08T04:38:57.374Z,989.62
2019-03-08T04:39:57.380Z,989.50
2019-03-08T04:40:57.338Z,989.69
2019-03-08T04:41:57.326Z,989.73
2019-03-08T04:42:57.306Z,989.69
2019-03-08T04:43:57.294Z,989.79
2019-03-08T04:44:57.281Z,989.76
2019-03-08T04:45:57.290Z,989.79
2019-03-08T04:46:57.274Z,989.74
2019-03-08T04:47:57.251Z,989.83
2019-03-08T04:48:57.238Z,989.88
2019-03-08T04:49:57.227Z,989.69
2019-03-08T04:50:57.214Z,989.84
2019-03-08T04:51:57.218Z,989.84
2019-03-08T04:52:57.218Z,989.79
2019-03-08T04:53:57.185Z,989.80
2019-03-08T04:54:57.170Z,989.87
2019-03-08T04:55:57.158Z,989.90
2019-03-08T04:56:57.150Z,989.96
2019-03-08T04:57:57.150Z,989.91
2019-03-08T04:58:57.145Z,989.95
2019-03-08T04:59:57.114Z,989.95
2019-03-08T05:00:57.107Z,989.80
2019-03-08T05:01:57.098Z,989.93
2019-03-08T05:02:57.101Z,989.85
2019-03-08T05:03:57.075Z,989.95
2019-03-08T05:04:57.074Z,989.94
2019-03-08T05:05:57.050Z,990.13
2019-03-08T05:06:57.038Z,989.96
2019-03-08T05:07:57.030Z,990.04
2019-03-08T05:08:57.026Z,990.03
2019-03-08T05:09:57.006Z,990.12
2019-03-08T05:10:57.034Z,990.06
2019-03-08T05:11:56.983Z,990.04
2019-03-08T05:12:56.970Z,990.22
2019-03-08T05:13:56.981Z,990.17
2019-03-08T05:14:56.961Z,990.09
2019-03-08T05:15:56.941Z,990.23
2019-03-08T05:16:56.946Z,990.20
2019-03-08T05:17:58.456Z,990.14
2019-03-08T05:18:56.906Z,990.29
2019-03-08T05:19:56.976Z,990.28
2019-03-08T05:20:56.882Z,990.28
2019-03-08T05:21:56.870Z,990.34
2019-03-08T05:22:56.882Z,990.28
2019-03-08T05:23:56.849Z,990.43
2019-03-08T05:24:56.842Z,990.28
2019-03-08T05:25:56.842Z,990.42
2019-03-08T05:26:56.814Z,990.31
2019-03-08T05:27:56.805Z,990.39
2019-03-08T05:28:56.818Z,990.55
2019-03-08T05:29:56.781Z,990.54
2019-03-08T05:30:56.769Z,990.42
2019-03-08T05:31:56.774Z,990.48
2019-03-08T05:32:56.749Z,990.44
2019-03-08T05:33:56.738Z,990.44
2019-03-08T05:34:56.738Z,990.48
2019-03-08T05:35:56.719Z,990.50
2019-03-08T05:36:56.707Z,990.52
2019-03-08T05:37:56.705Z,990.56
2019-03-08T05:38:56.682Z,990.54
2019-03-08T05:39:56.674Z,990.51
2019-03-08T05:40:56.694Z,990.52
2019-03-08T05:41:56.650Z,990.61
2019-03-08T05:42:56.654Z,990.60
2019-03-08T05:43:56.629Z,990.73
2019-03-08T05:44:56.617Z,990.61
2019-03-08T05:45:56.605Z,990.68
2019-03-08T05:46:56.617Z,990.71
2019-03-08T05:47:56.581Z,990.68
2019-03-08T05:48:56.588Z,990.71
2019-03-08T05:49:56.561Z,990.63
2019-03-08T05:50:56.549Z,990.74
2019-03-08T05:51:56.537Z,990.79
2019-03-08T05:52:56.550Z,990.76
2019-03-08T05:53:56.529Z,990.84
2019-03-08T05:54:56.506Z,990.91
2019-03-08T05:55:56.493Z,990.85
2019-03-08T05:56:56.482Z,990.98
2019-03-08T05:57:56.477Z,990.90
2019-03-08T05:58:56.505Z,991.18
2019-03-08T05:59:56.449Z,991.20
2019-03-08T06:00:56.441Z,991.04
2019-03-08T06:01:56.434Z,991.07
2019-03-08T06:02:56.417Z,991.35
2019-03-08T06:03:56.405Z,991.20
2019-03-08T06:04:56.421Z,991.14
2019-03-08T06:05:56.398Z,991.36
2019-03-08T06:06:56.374Z,991.23
2019-03-08T06:07:56.377Z,991.39
2019-03-08T06:08:56.353Z,991.38
2019-03-08T06:09:56.338Z,991.37
2019-03-08T06:10:56.345Z,991.43
2019-03-08T06:11:56.322Z,991.50
2019-03-08T06:12:56.305Z,991.51
2019-03-08T06:13:56.317Z,991.45
2019-03-08T06:14:56.293Z,991.66
2019-03-08T06:15:56.278Z,991.66
2019-03-08T06:16:56.269Z,991.62
2019-03-08T06:17:56.542Z,991.67
2019-03-08T06:18:56.253Z,991.70
2019-03-08T06:19:56.234Z,991.82
2019-03-08T06:20:56.217Z,991.67
2019-03-08T06:21:56.206Z,992.04
2019-03-08T06:22:56.205Z,991.72
2019-03-08T06:23:56.185Z,991.86
2019-03-08T06:24:56.189Z,991.90
2019-03-08T06:25:56.162Z,992.03
2019-03-08T06:26:56.151Z,992.00
2019-03-08T06:27:56.146Z,992.02
2019-03-08T06:28:56.133Z,992.03
2019-03-08T06:29:56.121Z,991.96
2019-03-08T06:30:56.121Z,992.05
2019-03-08T06:31:56.094Z,992.09
2019-03-08T06:32:56.083Z,992.03
2019-03-08T06:33:56.074Z,992.22
2019-03-08T06:34:56.067Z,992.11
2019-03-08T06:35:56.064Z,992.18
2019-03-08T06:36:56.058Z,992.26
2019-03-08T06:37:56.029Z,992.29
2019-03-08T06:38:56.019Z,992.29
2019-03-08T06:39:56.010Z,992.38
2019-03-08T06:40:55.995Z,992.50
2019-03-08T06:41:55.987Z,992.38
2019-03-08T06:42:55.986Z,992.39
2019-03-08T06:43:55.964Z,992.46
2019-03-08T06:44:55.956Z,992.43
2019-03-08T06:45:55.939Z,992.44
2019-03-08T06:46:55.934Z,992.59
2019-03-08T06:47:55.949Z,992.54
2019-03-08T06:48:55.910Z,992.54
2019-03-08T06:49:55.898Z,992.73
2019-03-08T06:50:55.890Z,992.63
2019-03-08T06:51:55.874Z,992.65
2019-03-08T06:52:55.874Z,992.71
2019-03-08T06:53:55.870Z,992.70
2019-03-08T06:54:55.839Z,992.76
2019-03-08T06:55:55.848Z,992.86
2019-03-08T06:56:55.819Z,992.83
2019-03-08T06:57:55.806Z,992.99
2019-03-08T06:58:55.798Z,992.90
2019-03-08T06:59:55.810Z,993.01
2019-03-08T07:00:55.774Z,993.10
2019-03-08T07:01:55.774Z,993.06
2019-03-08T07:02:55.753Z,993.07
2019-03-08T07:03:55.758Z,993.09
2019-03-08T07:04:55.730Z,993.16
2019-03-08T07:05:55.730Z,993.20
2019-03-08T07:06:55.706Z,993.08
2019-03-08T07:07:55.696Z,993.27
2019-03-08T07:08:55.688Z,993.29
2019-03-08T07:09:55.682Z,993.37
2019-03-08T07:10:55.682Z,993.37
2019-03-08T07:11:55.654Z,993.53
2019-03-08T07:13:02.814Z,993.37
2019-03-08T07:13:56.629Z,993.58
2019-03-08T07:14:55.618Z,993.52
2019-03-08T07:15:55.622Z,993.62
2019-03-08T07:16:55.596Z,993.68
2019-03-08T07:17:55.594Z,993.65
2019-03-08T07:18:55.586Z,993.74
2019-03-08T07:19:55.563Z,993.68
2019-03-08T07:20:55.551Z,993.74
2019-03-08T07:21:55.550Z,993.86
2019-03-08T07:22:55.530Z,993.71
2019-03-08T07:23:55.518Z,993.91
2019-03-08T07:24:55.518Z,993.83
2019-03-08T07:25:55.507Z,993.91
2019-03-08T07:26:55.484Z,993.90
2019-03-08T07:27:55.478Z,994.08
2019-03-08T07:28:57.396Z,994.06
2019-03-08T07:29:55.455Z,994.03
2019-03-08T07:30:58.215Z,994.06
2019-03-08T07:31:55.438Z,994.06
2019-03-08T07:32:55.422Z,994.20
2019-03-08T07:33:55.410Z,994.03
2019-03-08T07:34:55.399Z,994.22
2019-03-08T07:35:55.387Z,994.17
2019-03-08T07:36:55.402Z,994.10
2019-03-08T07:37:55.377Z,994.18
2019-03-08T07:38:55.352Z,994.31
2019-03-08T07:39:55.346Z,994.38
2019-03-08T07:40:55.331Z,994.40
2019-03-08T07:41:55.329Z,994.38
2019-03-08T07:42:55.340Z,994.41
2019-03-08T07:43:55.299Z,994.37
2019-03-08T07:44:55.287Z,994.46
2019-03-08T07:45:55.275Z,994.40
2019-03-08T07:46:55.264Z,994.47
2019-03-08T07:47:55.254Z,994.53
2019-03-08T07:48:55.275Z,994.68
2019-03-08T07:49:55.231Z,994.65
2019-03-08T07:50:55.218Z,994.64
2019-03-08T07:51:55.207Z,994.57
2019-03-08T07:52:55.199Z,994.64
2019-03-08T07:53:55.189Z,994.67
2019-03-08T07:54:55.189Z,994.65
2019-03-08T07:55:55.169Z,994.68
2019-03-08T07:56:55.152Z,994.66
2019-03-08T07:57:55.139Z,994.89
2019-03-08T07:58:55.136Z,994.83
2019-03-08T07:59:55.137Z,994.84
2019-03-08T08:00:55.110Z,994.89
2019-03-08T08:01:55.094Z,994.91
2019-03-08T08:03:03.319Z,994.98
2019-03-08T08:03:56.071Z,995.03
2019-03-08T08:04:55.064Z,995.04
2019-03-08T08:05:58.251Z,995.11
2019-03-08T08:06:55.062Z,995.00
2019-03-08T08:07:55.028Z,995.03
2019-03-08T08:08:55.030Z,995.11
2019-03-08T08:09:55.009Z,995.09
2019-03-08T08:10:54.995Z,995.14
2019-03-08T08:11:54.998Z,995.20
2019-03-08T08:12:54.987Z,995.14
2019-03-08T08:13:54.963Z,995.19
2019-03-08T08:14:54.976Z,995.33
2019-03-08T08:15:54.939Z,995.38
2019-03-08T08:16:54.927Z,995.34
2019-03-08T08:17:54.928Z,995.31
2019-03-08T08:18:54.918Z,995.41
2019-03-08T08:19:54.894Z,995.38
2019-03-08T08:20:54.887Z,995.49
2019-03-08T08:21:54.895Z,995.43
2019-03-08T08:22:54.867Z,995.43
2019-03-08T08:23:54.855Z,995.45
2019-03-08T08:24:54.855Z,995.53
2019-03-08T08:25:54.834Z,995.59
2019-03-08T08:26:54.823Z,995.56
2019-03-08T08:27:54.821Z,995.63
2019-03-08T08:28:55.963Z,995.57
2019-03-08T08:29:54.780Z,995.68
2019-03-08T08:30:54.774Z,995.66
2019-03-08T08:31:54.774Z,995.76
2019-03-08T08:32:54.750Z,995.76
2019-03-08T08:33:54.750Z,995.75
2019-03-08T08:34:54.727Z,995.82
2019-03-08T08:35:54.722Z,995.88
2019-03-08T08:36:54.707Z,995.84
2019-03-08T08:37:54.707Z,995.80
2019-03-08T08:38:54.702Z,995.85
2019-03-08T08:39:54.670Z,995.88
2019-03-08T08:40:54.667Z,995.87
2019-03-08T08:41:54.646Z,995.87
2019-03-08T08:42:54.639Z,995.85
2019-03-08T08:43:54.650Z,995.88
2019-03-08T08:44:54.627Z,995.88
2019-03-08T08:45:54.606Z,996.00
2019-03-08T08:46:54.592Z,995.93
2019-03-08T08:47:54.587Z,995.98
2019-03-08T08:48:54.570Z,996.01
2019-03-08T08:49:55.739Z,996.07
2019-03-08T08:50:54.559Z,996.11
2019-03-08T08:51:54.539Z,996.15
2019-03-08T08:52:54.530Z,996.12
2019-03-08T08:53:54.514Z,996.18
2019-03-08T08:54:54.506Z,996.09
2019-03-08T08:55:54.538Z,996.17
2019-03-08T08:56:54.482Z,996.32
2019-03-08T08:57:54.469Z,996.31
2019-03-08T08:58:54.466Z,996.27
2019-03-08T08:59:54.449Z,996.28
2019-03-08T09:00:54.457Z,996.37
2019-03-08T09:01:54.437Z,996.32
2019-03-08T09:02:54.417Z,996.29
2019-03-08T09:03:54.404Z,996.41
2019-03-08T09:04:54.395Z,996.43
2019-03-08T09:05:56.365Z,996.40
2019-03-08T09:06:54.378Z,996.34
2019-03-08T09:07:54.366Z,996.35
2019-03-08T09:08:54.355Z,996.43
2019-03-08T09:09:54.340Z,996.41
2019-03-08T09:10:54.338Z,996.53
2019-03-08T09:11:54.335Z,996.59
2019-03-08T09:12:54.301Z,996.62
2019-03-08T09:13:54.303Z,996.59
2019-03-08T09:14:54.283Z,996.65
2019-03-08T09:15:54.269Z,996.55
2019-03-08T09:16:54.259Z,996.59
2019-03-08T09:17:54.262Z,996.58
2019-03-08T09:18:54.235Z,996.61
2019-03-08T09:19:54.231Z,996.69
2019-03-08T09:20:54.214Z,996.80
2019-03-08T09:21:54.203Z,996.91
2019-03-08T09:22:54.194Z,996.77
2019-03-08T09:23:54.205Z,996.72
2019-03-08T09:24:54.171Z,996.73
2019-03-08T09:25:54.171Z,996.78
2019-03-08T09:26:54.145Z,996.94
2019-03-08T09:27:54.137Z,996.90
2019-03-08T09:28:54.129Z,996.82
2019-03-08T09:29:54.126Z,996.86
2019-03-08T09:30:54.108Z,996.96
2019-03-08T09:31:54.095Z,996.86
2019-03-08T09:32:59.197Z,997.01
2019-03-08T09:33:55.074Z,996.94
2019-03-08T09:34:54.069Z,996.96
2019-03-08T09:35:54.045Z,997.07
2019-03-08T09:36:54.041Z,996.96
2019-03-08T09:37:54.049Z,997.04
2019-03-08T09:38:54.013Z,996.93
2019-03-08T09:39:54.012Z,997.01
2019-03-08T09:40:54.007Z,997.01
2019-03-08T09:41:53.981Z,997.06
2019-03-08T09:42:53.981Z,997.06
2019-03-08T09:43:53.961Z,997.14
2019-03-08T09:44:53.945Z,997.17
2019-03-08T09:45:53.932Z,997.20
2019-03-08T09:46:53.935Z,997.26
2019-03-08T09:47:53.919Z,997.27
2019-03-08T09:48:53.913Z,997.29
2019-03-08T09:49:53.898Z,997.32
2019-03-08T09:50:53.879Z,997.39
2019-03-08T09:51:53.871Z,997.38
2019-03-08T09:52:53.857Z,997.59
2019-03-08T09:53:53.849Z,997.41
2019-03-08T09:54:53.847Z,997.51
2019-03-08T09:55:53.837Z,997.49
2019-03-08T09:56:53.813Z,997.60
2019-03-08T09:57:53.803Z,997.57
2019-03-08T09:58:53.801Z,997.56
2019-03-08T09:59:53.789Z,997.64
2019-03-08T10:00:53.786Z,997.67
2019-03-08T10:01:53.768Z,997.59
2019-03-08T10:02:53.749Z,997.67
2019-03-08T10:03:53.733Z,997.67
2019-03-08T10:04:53.742Z,997.76
2019-03-08T10:05:53.719Z,997.70
2019-03-08T10:06:53.701Z,997.80
2019-03-08T10:07:53.689Z,997.75
2019-03-08T10:08:53.690Z,997.74
2019-03-08T10:09:53.665Z,997.72
2019-03-08T10:10:53.673Z,997.71
2019-03-08T10:11:53.645Z,997.75
2019-03-08T10:12:53.632Z,997.76
2019-03-08T10:13:53.621Z,997.79
2019-03-08T10:14:53.631Z,997.83
2019-03-08T10:15:53.611Z,997.81
2019-03-08T10:16:53.606Z,997.85
2019-03-08T10:17:53.577Z,997.83
2019-03-08T10:18:53.567Z,997.81
2019-03-08T10:19:53.602Z,997.82
2019-03-08T10:20:53.551Z,997.86
2019-03-08T10:21:53.533Z,997.88
2019-03-08T10:22:53.534Z,998.01
2019-03-08T10:23:53.559Z,998.04
2019-03-08T10:24:53.503Z,997.96
2019-03-08T10:25:53.490Z,997.94
2019-03-08T10:26:53.493Z,997.92
2019-03-08T10:27:53.483Z,997.95
2019-03-08T10:28:53.456Z,998.00
2019-03-08T10:29:53.446Z,998.00
2019-03-08T10:30:53.434Z,997.97
2019-03-08T10:31:54.284Z,997.97
2019-03-08T10:32:53.426Z,997.96
2019-03-08T10:33:53.411Z,998.04
2019-03-08T10:34:53.405Z,997.99
2019-03-08T10:35:53.381Z,998.02
2019-03-08T10:36:53.365Z,998.00
2019-03-08T10:37:53.369Z,997.95
2019-03-08T10:38:53.351Z,997.90
2019-03-08T10:39:53.341Z,997.92
2019-03-08T10:40:53.321Z,997.97
2019-03-08T10:41:53.311Z,997.98
2019-03-08T10:42:53.298Z,998.04
2019-03-08T10:43:53.313Z,998.01
2019-03-08T10:44:53.279Z,998.15
2019-03-08T10:45:53.289Z,998.06
2019-03-08T10:46:53.253Z,998.03
2019-03-08T10:47:56.300Z,998.17
2019-03-08T10:48:53.230Z,998.07
2019-03-08T10:49:55.451Z,998.15
2019-03-08T10:50:53.215Z,998.14
2019-03-08T10:51:53.205Z,998.13
2019-03-08T10:52:53.187Z,998.16
2019-03-08T10:54:00.420Z,998.17
2019-03-08T10:54:54.162Z,998.17
2019-03-08T10:55:53.168Z,998.18
2019-03-08T10:56:53.143Z,998.25
2019-03-08T10:57:53.151Z,998.27
2019-03-08T10:58:55.122Z,998.19
2019-03-08T10:59:53.122Z,998.26
2019-03-08T11:00:53.097Z,998.38
2019-03-08T11:01:53.095Z,998.36
2019-03-08T11:02:53.075Z,998.26
2019-03-08T11:03:53.080Z,998.45
2019-03-08T11:04:53.053Z,998.37
2019-03-08T11:05:53.055Z,998.41
2019-03-08T11:06:53.031Z,998.31
2019-03-08T11:07:53.019Z,998.44
2019-03-08T11:08:53.006Z,998.51
2019-03-08T11:09:53.009Z,998.38
2019-03-08T11:10:52.990Z,998.44
2019-03-08T11:11:52.983Z,998.32
2019-03-08T11:12:52.963Z,998.46
2019-03-08T11:13:52.950Z,998.42
2019-03-08T11:14:52.943Z,998.60
2019-03-08T11:15:52.951Z,998.45
2019-03-08T11:16:52.929Z,998.46
2019-03-08T11:17:52.906Z,998.57
2019-03-08T11:18:52.897Z,998.49
2019-03-08T11:19:52.883Z,998.57
2019-03-08T11:20:52.875Z,998.71
2019-03-08T11:21:52.894Z,998.67
2019-03-08T11:22:52.854Z,998.74
2019-03-08T11:23:52.840Z,998.64
2019-03-08T11:24:52.831Z,998.64
2019-03-08T11:25:52.819Z,998.61
2019-03-08T11:26:52.806Z,998.89
2019-03-08T11:27:52.831Z,998.76
2019-03-08T11:28:52.787Z,998.85
2019-03-08T11:29:52.777Z,998.71
2019-03-08T11:30:54.225Z,998.87
2019-03-08T11:31:52.751Z,998.72
2019-03-08T11:32:52.743Z,998.76
2019-03-08T11:33:52.745Z,998.70
2019-03-08T11:34:52.721Z,998.88
2019-03-08T11:35:52.708Z,998.83
2019-03-08T11:36:52.694Z,998.80
2019-03-08T11:37:52.687Z,998.75
2019-03-08T11:38:52.693Z,998.90
2019-03-08T11:39:52.666Z,999.05
2019-03-08T11:40:52.657Z,998.95
2019-03-08T11:41:52.641Z,998.83
2019-03-08T11:42:52.630Z,998.98
2019-03-08T11:43:52.621Z,998.94
2019-03-08T11:44:52.628Z,999.10
2019-03-08T11:45:52.601Z,998.96
2019-03-08T11:46:53.786Z,998.96
2019-03-08T11:47:52.574Z,998.95
2019-03-08T11:48:52.565Z,999.25
2019-03-08T11:49:52.559Z,999.08
2019-03-08T11:50:52.556Z,998.99
2019-03-08T11:51:52.530Z,999.01
2019-03-08T11:52:52.537Z,999.09
2019-03-08T11:53:56.182Z,999.03
2019-03-08T11:54:52.496Z,999.07
2019-03-08T11:55:52.510Z,999.08
2019-03-08T11:56:56.180Z,999.19
2019-03-08T11:57:52.469Z,999.13
2019-03-08T11:58:52.467Z,999.07
2019-03-08T11:59:52.441Z,999.09
2019-03-08T12:00:53.200Z,999.18
2019-03-08T12:01:52.442Z,999.15
2019-03-08T12:02:52.416Z,999.22
2019-03-08T12:03:52.397Z,999.26
2019-03-08T12:04:52.393Z,999.18
2019-03-08T12:05:52.373Z,999.16
2019-03-08T12:06:52.362Z,999.24
2019-03-08T12:07:52.364Z,999.13
2019-03-08T12:08:52.341Z,999.07
2019-03-08T12:09:52.330Z,999.20
2019-03-08T12:10:52.465Z,999.27
2019-03-08T12:11:52.314Z,999.14
2019-03-08T12:12:52.309Z,999.19
2019-03-08T12:13:52.281Z,999.25
2019-03-08T12:14:52.277Z,999.16
2019-03-08T12:15:52.261Z,999.33
2019-03-08T12:16:52.282Z,999.37
2019-03-08T12:17:52.249Z,999.43
2019-03-08T12:18:52.241Z,999.30
2019-03-08T12:19:52.219Z,999.26
2019-03-08T12:20:52.212Z,999.21
2019-03-08T12:21:52.193Z,999.30
2019-03-08T12:22:52.198Z,999.23
2019-03-08T12:23:52.169Z,999.49
2019-03-08T12:24:52.169Z,999.32
2019-03-08T12:25:52.146Z,999.34
2019-03-08T12:26:52.182Z,999.28
2019-03-08T12:27:52.125Z,999.29